Time;durP1;ratioP1;P1;durP2;ratioP2;P2;SDS_P1;SDS_P2;PMS_P1;PMS_P2;Temp;Humidity;BMP_temperature;BMP_pressure;BME280_temperature;BME280_humidity;BME280_pressure;Samples;Min_cycle;Max_cycle;Signal;HPM_P1;HPM_P2
2022/02/15 00:01:50;;;;;;;34.25;19.75;;;;;;;2.34;65.95;99821.25;1682436;85;21046;-70
2022/02/15 00:04:16;;;;;;;34.98;19.15;;;;;;;2.30;65.98;99819.84;1682427;85;21514;-70
2022/02/15 00:06:42;;;;;;;34.73;19.73;;;;;;;2.30;66.00;99822.48;1682206;85;22179;-70
2022/02/15 00:09:09;;;;;;;32.08;17.92;;;;;;;2.28;66.02;99820.47;1682429;85;21473;-70
2022/02/15 00:11:35;;;;;;;34.35;16.65;;;;;;;2.25;66.04;99818.08;1682357;85;21052;-70
2022/02/15 00:14:01;;;;;;;33.28;16.93;;;;;;;2.26;66.07;99819.75;1691236;83;21010;-70
2022/02/15 00:16:27;;;;;;;28.35;15.93;;;;;;;2.28;66.11;99821.79;1710560;83;21013;-70
2022/02/15 00:18:53;;;;;;;31.12;16.50;;;;;;;2.29;66.16;99824.75;1714315;82;21159;-70
2022/02/15 00:21:19;;;;;;;32.48;17.85;;;;;;;2.28;66.20;99825.73;1714706;83;21059;-70
2022/02/15 00:23:45;;;;;;;35.48;19.35;;;;;;;2.29;66.26;99822.12;1714981;83;21019;-70
2022/02/15 00:26:11;;;;;;;37.30;19.48;;;;;;;2.27;66.30;99833.27;1714848;82;21020;-70
2022/02/15 00:28:37;;;;;;;44.63;22.73;;;;;;;2.25;66.37;99829.91;1715011;82;21055;-70
2022/02/15 00:31:03;;;;;;;49.33;24.67;;;;;;;2.25;66.44;99825.97;1714971;82;21172;-70
2022/02/15 00:33:29;;;;;;;47.25;23.80;;;;;;;2.21;66.48;99821.96;1714599;82;21047;-70
2022/02/15 00:35:56;;;;;;;49.33;23.83;;;;;;;2.18;66.49;99828.77;1714775;83;20920;-70
2022/02/15 00:38:22;;;;;;;42.15;20.85;;;;;;;2.13;66.53;99828.34;1715027;82;21500;-70
2022/02/15 00:40:48;;;;;;;42.90;22.10;;;;;;;2.10;66.55;99830.41;1714945;83;21460;-70
2022/02/15 00:43:15;;;;;;;40.65;22.20;;;;;;;2.08;66.59;99833.16;1714770;82;21176;-70
2022/02/15 00:45:41;;;;;;;37.53;19.87;;;;;;;2.05;66.60;99834.73;1714766;83;21071;-70
2022/02/15 00:48:07;;;;;;;33.20;18.00;;;;;;;2.05;66.65;99845.25;1714908;83;20896;-70
2022/02/15 00:50:33;;;;;;;37.03;19.80;;;;;;;2.06;66.66;99841.66;1714985;82;21555;-70
2022/02/15 00:52:59;;;;;;;31.62;17.77;;;;;;;2.08;66.68;99834.47;1715002;82;21047;-70
2022/02/15 00:55:25;;;;;;;32.15;17.07;;;;;;;2.09;66.70;99834.83;1714797;82;21163;-70
2022/02/15 00:57:53;;;;;;;28.40;16.12;;;;;;;2.15;66.72;99834.30;1714850;82;20987;-70
2022/02/15 01:00:19;;;;;;;33.40;18.70;;;;;;;2.21;66.74;99836.43;1714975;82;21004;-70
2022/02/15 01:02:45;;;;;;;31.65;18.40;;;;;;;2.24;66.74;99830.91;1715000;82;21016;-71
2022/02/15 01:05:11;;;;;;;29.77;17.57;;;;;;;2.26;66.78;99826.81;1715157;83;21019;-70
2022/02/15 01:07:37;;;;;;;35.48;18.40;;;;;;;2.30;66.79;99827.73;1714901;83;21083;-70
2022/02/15 01:10:04;;;;;;;34.88;19.73;;;;;;;2.33;66.79;99826.16;1715006;83;21646;-70
2022/02/15 01:12:30;;;;;;;40.75;20.15;;;;;;;2.34;66.81;99825.20;1714702;82;21040;-70
2022/02/15 01:14:56;;;;;;;33.80;18.52;;;;;;;2.36;66.82;99829.84;1714996;83;20899;-70
2022/02/15 01:17:22;;;;;;;31.57;17.32;;;;;;;2.38;66.84;99819.19;1717626;82;20895;-70
2022/02/15 01:19:48;;;;;;;33.88;17.67;;;;;;;2.40;66.85;99821.20;1701527;83;21145;-70
2022/02/15 01:22:14;;;;;;;31.48;17.35;;;;;;;2.41;66.87;99824.19;1712048;83;21035;-70
2022/02/15 01:24:40;;;;;;;34.78;17.75;;;;;;;2.41;66.87;99822.39;1712258;83;21035;-70
2022/02/15 01:27:06;;;;;;;32.08;17.65;;;;;;;2.42;66.90;99825.86;1712083;83;21107;-71
2022/02/15 01:29:32;;;;;;;33.10;17.82;;;;;;;2.43;66.92;99828.82;1712193;83;21035;-70
2022/02/15 01:31:58;;;;;;;35.05;18.30;;;;;;;2.45;66.92;99826.43;1720025;83;21034;-70
2022/02/15 01:34:25;;;;;;;36.83;18.73;;;;;;;2.48;66.93;99830.11;1719962;83;21047;-70
2022/02/15 01:36:51;;;;;;;33.35;17.67;;;;;;;2.51;66.94;99827.20;1720223;83;21039;-70
2022/02/15 01:39:16;;;;;;;28.90;17.17;;;;;;;2.53;66.92;99824.94;1719891;83;20903;-70
2022/02/15 01:41:43;;;;;;;32.60;17.90;;;;;;;2.55;66.93;99822.98;1720004;83;21031;-70
2022/02/15 01:44:09;;;;;;;35.55;17.35;;;;;;;2.60;66.93;99826.07;1720133;83;21093;-70
2022/02/15 01:46:38;;;;;;;33.53;17.90;;;;;;;2.62;66.93;99822.80;1719697;83;21000;-70
2022/02/15 01:49:05;;;;;;;27.87;13.03;;;;;;;2.62;66.93;99823.64;1720346;83;21022;-70
2022/02/15 01:51:31;;;;;;;30.02;15.80;;;;;;;2.63;66.94;99820.53;1720134;83;21095;-70
2022/02/15 01:53:57;;;;;;;30.77;18.00;;;;;;;2.63;66.94;99816.58;1719979;83;21691;-70
2022/02/15 01:56:23;;;;;;;30.32;17.32;;;;;;;2.64;66.96;99820.38;1719917;83;21166;-70
2022/02/15 01:58:50;;;;;;;29.57;15.32;;;;;;;2.65;66.94;99820.73;1720095;83;20952;-70
2022/02/15 02:01:16;;;;;;;38.95;16.52;;;;;;;2.67;66.96;99817.98;1719976;83;21019;-70
2022/02/15 02:03:42;;;;;;;33.35;17.10;;;;;;;2.68;66.95;99807.78;1720128;83;21018;-70
2022/02/15 02:06:08;;;;;;;29.12;16.42;;;;;;;2.70;66.96;99809.82;1720109;83;20999;-70
2022/02/15 02:08:35;;;;;;;29.50;16.50;;;;;;;2.73;66.93;99814.81;1719807;83;21155;-70
2022/02/15 02:11:01;;;;;;;36.60;17.73;;;;;;;2.76;66.96;99813.22;1719903;83;21582;-70
2022/02/15 02:13:28;;;;;;;37.20;16.90;;;;;;;2.79;66.94;99812.95;1719794;83;33630;-70
2022/02/15 02:15:54;;;;;;;33.23;17.12;;;;;;;2.81;66.93;99811.03;1720167;83;20979;-70
2022/02/15 02:18:20;;;;;;;29.77;16.82;;;;;;;2.83;66.93;99808.60;1719731;83;21051;-70
2022/02/15 02:20:46;;;;;;;29.45;17.17;;;;;;;2.86;66.94;99805.70;1720001;82;21857;-70
2022/02/15 02:23:13;;;;;;;29.48;16.62;;;;;;;2.87;66.92;99806.53;1719916;83;20999;-70
2022/02/15 02:25:39;;;;;;;29.82;16.37;;;;;;;2.90;66.92;99802.30;1719919;82;21003;-70
2022/02/15 02:28:05;;;;;;;33.35;16.70;;;;;;;2.92;66.90;99801.19;1720131;83;20999;-70
2022/02/15 02:30:31;;;;;;;29.42;16.25;;;;;;;2.94;66.90;99800.59;1720132;82;20999;-70
2022/02/15 02:32:57;;;;;;;33.25;16.97;;;;;;;2.97;66.89;99802.11;1720277;82;21145;-70
2022/02/15 02:35:23;;;;;;;26.75;16.57;;;;;;;2.96;66.89;99803.07;1719896;83;21547;-70
2022/02/15 02:37:49;;;;;;;29.72;17.23;;;;;;;2.98;66.87;99807.73;1720212;82;21468;-70
2022/02/15 02:40:15;;;;;;;28.23;15.98;;;;;;;2.99;66.88;99802.83;1719919;82;21051;-71
2022/02/15 02:42:41;;;;;;;33.42;17.75;;;;;;;2.99;66.88;99805.45;1720165;82;21047;-71
2022/02/15 02:45:11;;;;;;;30.10;16.35;;;;;;;3.01;66.87;99812.73;1720096;83;21168;-70
2022/02/15 02:47:39;;;;;;;29.30;16.73;;;;;;;3.02;66.90;99806.50;1719966;83;21544;-70
2022/02/15 02:50:06;;;;;;;28.90;15.72;;;;;;;3.01;66.90;99816.67;1720289;82;20999;-70
2022/02/15 02:52:32;;;;;;;28.95;16.05;;;;;;;3.00;66.92;99816.31;1719819;82;21015;-70
2022/02/15 02:54:58;;;;;;;27.77;16.25;;;;;;;2.98;66.96;99809.89;1720060;83;21538;-70
2022/02/15 02:57:25;;;;;;;27.30;15.45;;;;;;;2.96;67.02;99810.97;1720149;82;21807;-70
2022/02/15 02:59:51;;;;;;;30.20;15.23;;;;;;;2.95;67.05;99806.22;1720033;83;20976;-70
2022/02/15 03:02:17;;;;;;;27.98;15.85;;;;;;;2.96;67.10;99814.92;1720153;82;21183;-70
2022/02/15 03:04:43;;;;;;;31.82;15.13;;;;;;;2.96;67.16;99818.39;1719963;82;21023;-70
2022/02/15 03:07:10;;;;;;;30.88;15.68;;;;;;;3.00;67.21;99820.27;1720140;83;21039;-70
2022/02/15 03:09:37;;;;;;;31.85;15.85;;;;;;;3.04;67.26;99819.03;1719786;83;21508;-70
2022/02/15 03:12:04;;;;;;;30.15;15.45;;;;;;;3.07;67.32;99824.02;1720027;82;21075;-70
2022/02/15 03:14:30;;;;;;;26.12;15.65;;;;;;;3.11;67.38;99825.42;1719996;83;21015;-70
2022/02/15 03:16:56;;;;;;;31.57;16.85;;;;;;;3.15;67.43;99826.81;1720185;83;21142;-70
2022/02/15 03:19:22;;;;;;;35.00;16.20;;;;;;;3.17;67.45;99826.66;1715994;82;21584;-70
2022/02/15 03:21:48;;;;;;;29.18;16.12;;;;;;;3.16;67.49;99832.45;1714841;83;22050;-70
2022/02/15 03:24:14;;;;;;;28.87;16.05;;;;;;;3.17;67.56;99838.03;1714611;83;21004;-69
2022/02/15 03:26:42;;;;;;;32.30;17.07;;;;;;;3.18;67.57;99833.13;1714719;83;21035;-70
2022/02/15 03:29:10;;;;;;;32.25;16.70;;;;;;;3.17;67.61;99839.36;1715095;83;21527;-70
2022/02/15 03:31:38;;;;;;;36.88;19.37;;;;;;;3.17;67.63;99838.03;1714551;83;21003;-70
2022/02/15 03:34:04;;;;;;;38.05;20.43;;;;;;;3.15;67.65;99839.98;1714541;83;21148;-70
2022/02/15 03:36:30;;;;;;;35.00;20.23;;;;;;;3.15;67.71;99843.94;1714430;83;21450;-70
2022/02/15 03:38:56;;;;;;;35.03;18.50;;;;;;;3.14;67.75;99845.38;1714675;83;21708;-70
2022/02/15 03:44:06;;;;;;;47.10;23.25;;;;;;;3.14;67.83;99846.22;1714605;83;21105;-70
2022/02/15 03:46:32;;;;;;;34.45;18.95;;;;;;;3.15;67.88;99846.58;1714747;83;21216;-70
2022/02/15 03:48:58;;;;;;;39.33;17.95;;;;;;;3.16;67.93;99844.30;1714595;83;20979;-70
2022/02/15 03:51:24;;;;;;;31.97;16.45;;;;;;;3.18;68.01;99846.30;1714619;83;21066;-69
2022/02/15 03:53:50;;;;;;;27.10;15.53;;;;;;;3.20;68.05;99840.39;1714269;83;20900;-70
2022/02/15 03:56:16;;;;;;;33.38;17.05;;;;;;;3.19;68.14;99833.48;1714807;83;21102;-70
2022/02/15 03:58:42;;;;;;;32.93;17.37;;;;;;;3.23;68.21;99840.63;1714689;83;21156;-70
2022/02/15 04:01:09;;;;;;;41.40;17.75;;;;;;;3.27;68.31;99847.30;1714781;83;21520;-70
2022/02/15 04:03:35;;;;;;;36.93;18.30;;;;;;;3.28;68.39;99842.34;1714810;83;21054;-70
2022/02/15 04:06:01;;;;;;;29.92;15.38;;;;;;;3.29;68.45;99838.75;1714714;83;21020;-70
2022/02/15 04:08:27;;;;;;;28.50;15.15;;;;;;;3.32;68.52;99841.95;1714534;83;21075;-70
2022/02/15 04:10:53;;;;;;;25.95;15.38;;;;;;;3.33;68.54;99844.94;1714544;82;21136;-70
2022/02/15 04:13:19;;;;;;;31.02;16.45;;;;;;;3.34;68.60;99839.99;1714331;83;20912;-70
2022/02/15 04:15:45;;;;;;;26.82;15.03;;;;;;;3.38;68.62;99842.70;1680339;83;21355;-70
2022/02/15 04:18:11;;;;;;;32.98;17.25;;;;;;;3.41;68.67;99841.63;1673644;84;21524;-70
2022/02/15 04:20:38;;;;;;;32.63;16.25;;;;;;;3.44;68.67;99843.97;1673928;85;21329;-70
2022/02/15 04:23:04;;;;;;;27.55;15.68;;;;;;;3.44;68.69;99846.13;1673357;85;21167;-70
2022/02/15 04:25:30;;;;;;;26.95;14.07;;;;;;;3.44;68.71;99854.03;1720431;83;20932;-70
2022/02/15 04:27:56;;;;;;;28.27;15.25;;;;;;;3.42;68.73;99852.00;1720409;83;21018;-69
2022/02/15 04:30:22;;;;;;;24.30;14.43;;;;;;;3.42;68.76;99859.91;1720483;83;21069;-70
2022/02/15 04:32:48;;;;;;;26.20;15.65;;;;;;;3.42;68.78;99858.59;1720584;83;21006;-70
2022/02/15 04:35:14;;;;;;;25.32;14.65;;;;;;;3.42;68.80;99865.19;1720464;83;21141;-69
2022/02/15 04:37:40;;;;;;;28.65;14.40;;;;;;;3.43;68.84;99865.54;1720466;83;21042;-70
2022/02/15 04:40:07;;;;;;;25.25;13.35;;;;;;;3.44;68.84;99864.58;1720607;83;21055;-70
2022/02/15 04:42:33;;;;;;;27.70;15.08;;;;;;;3.48;68.86;99867.77;1720586;83;22261;-70
2022/02/15 04:44:59;;;;;;;31.35;14.25;;;;;;;3.50;68.90;99874.56;1720587;83;21475;-70
2022/02/15 04:47:25;;;;;;;26.27;14.25;;;;;;;3.52;68.96;99873.92;1720699;83;21601;-70
2022/02/15 04:49:51;;;;;;;28.55;15.43;;;;;;;3.56;69.00;99874.97;1720650;83;21523;-70
2022/02/15 04:52:17;;;;;;;29.67;15.10;;;;;;;3.60;69.06;99876.36;1720696;83;21548;-70
2022/02/15 04:54:43;;;;;;;26.00;15.00;;;;;;;3.62;69.07;99872.63;1720488;83;21480;-70
2022/02/15 04:57:09;;;;;;;27.85;15.08;;;;;;;3.63;69.12;99876.91;1720119;83;20978;-70
2022/02/15 13:41:51;;;;;;;11.40;4.92;;;;;;;10.04;62.28;100097.22;1671126;84;21054;-72
2022/02/15 13:44:19;;;;;;;8.85;5.10;;;;;;;10.00;62.25;100096.73;1682445;83;21133;-70
2022/02/15 13:46:45;;;;;;;12.73;5.08;;;;;;;10.00;62.21;100103.89;1661217;85;21070;-72
2022/02/15 13:49:11;;;;;;;10.82;4.40;;;;;;;10.03;62.18;100102.22;1668640;83;21558;-72
2022/02/15 13:51:37;;;;;;;23.42;5.22;;;;;;;10.02;62.10;100105.91;1697077;83;21007;-73
2022/02/15 13:54:06;;;;;;;13.20;5.22;;;;;;;9.97;62.04;100101.09;1692388;83;21035;-71
2022/02/15 13:56:32;;;;;;;9.40;5.47;;;;;;;9.98;62.02;100104.59;1672090;85;21800;-72
2022/02/15 13:58:58;;;;;;;20.43;6.40;;;;;;;9.99;62.03;100104.92;1672054;85;21016;-71
2022/02/15 14:01:24;;;;;;;26.65;6.37;;;;;;;10.00;62.04;100100.73;1663056;85;21080;-71
2022/02/15 14:03:51;;;;;;;12.00;6.08;;;;;;;10.02;62.02;100096.08;1666403;85;21006;-71
2022/02/15 14:06:20;;;;;;;14.13;5.42;;;;;;;9.98;62.02;100097.92;1671103;85;20995;-71
2022/02/15 14:08:47;;;;;;;;;;;;;;;9.93;62.03;100100.27;1671564;85;21150;-71
2022/02/15 14:11:13;;;;;;;17.15;5.37;;;;;;;9.90;62.03;100107.27;1651465;85;20170;-72
2022/02/15 14:13:40;;;;;;;15.58;5.08;;;;;;;9.86;62.03;100109.95;1646217;85;21007;-72
2022/02/15 14:16:06;;;;;;;12.40;4.65;;;;;;;9.81;62.05;100112.31;1644232;87;21027;-71
2022/02/15 14:18:32;;;;;;;19.52;5.00;;;;;;;9.82;62.08;100109.96;1657835;85;21571;-72
2022/02/15 14:20:59;;;;;;;9.38;4.65;;;;;;;9.79;62.07;100109.81;1665795;84;21459;-72
2022/02/15 14:23:25;;;;;;;11.63;5.15;;;;;;;9.77;62.11;100105.67;1672048;85;21071;-72
2022/02/15 14:25:51;;;;;;;11.85;5.47;;;;;;;9.72;62.15;100109.33;1673182;85;21101;-72
2022/02/15 14:28:18;;;;;;;13.08;5.08;;;;;;;9.69;62.16;100116.34;1647310;85;21035;-71
2022/02/15 14:30:47;;;;;;;12.80;4.60;;;;;;;9.62;62.20;100114.03;1662046;83;21059;-71
2022/02/15 14:33:13;;;;;;;16.32;4.97;;;;;;;9.54;62.23;100113.55;1667966;85;21160;-71
2022/02/15 14:35:40;;;;;;;9.80;3.80;;;;;;;9.49;62.26;100114.08;1663668;85;21022;-71
2022/02/15 14:38:07;;;;;;;11.75;4.95;;;;;;;9.47;62.26;100117.39;1661570;85;21006;-71
2022/02/15 14:40:34;;;;;;;51.70;14.20;;;;;;;9.44;62.31;100121.72;1645047;85;21072;-71
2022/02/15 14:43:01;;;;;;;23.60;8.28;;;;;;;9.41;62.32;100126.06;1663225;85;21502;-71
2022/02/15 14:45:27;;;;;;;17.42;5.15;;;;;;;9.38;62.33;100123.73;1661625;85;21811;-71
2022/02/15 14:47:53;;;;;;;12.58;4.72;;;;;;;9.35;62.39;100130.73;1672646;84;21000;-71
2022/02/15 14:50:19;;;;;;;57.08;16.42;;;;;;;9.31;62.43;100129.41;1689392;84;21043;-71
2022/02/15 14:52:46;;;;;;;73.83;18.50;;;;;;;9.29;62.48;100134.58;1674063;84;21074;-71
2022/02/15 14:55:15;;;;;;;33.78;10.18;;;;;;;9.27;62.53;100134.73;1672068;85;21097;-70
2022/02/15 14:57:42;;;;;;;72.78;21.73;;;;;;;9.24;62.56;100140.39;1672549;85;22553;-71
2022/02/15 15:00:11;;;;;;;45.98;14.75;;;;;;;9.22;62.63;100140.23;1664210;84;21018;-71
2022/02/15 15:02:40;;;;;;;36.33;12.83;;;;;;;9.19;62.68;100143.20;1644296;85;21060;-71
2022/02/15 15:05:07;;;;;;;48.23;13.13;;;;;;;9.17;62.76;100142.05;1668114;85;21050;-71
2022/02/15 15:07:33;;;;;;;65.28;19.12;;;;;;;9.15;62.78;100145.36;1651713;85;21033;-72
2022/02/15 15:09:59;;;;;;;47.27;13.43;;;;;;;9.13;62.85;100147.38;1656272;84;21089;-71
2022/02/15 15:12:25;;;;;;;51.92;14.83;;;;;;;9.09;62.89;100146.04;1672121;85;21015;-71
2022/02/15 15:14:51;;;;;;;41.10;15.53;;;;;;;9.06;62.94;100153.02;1672666;85;20931;-71
2022/02/15 15:17:17;;;;;;;36.83;12.63;;;;;;;9.04;63.01;100151.05;1634056;85;21012;-71
2022/02/15 15:19:43;;;;;;;28.42;9.90;;;;;;;9.00;63.05;100147.05;1631040;87;21521;-71
2022/02/15 15:22:11;;;;;;;99.00;27.70;;;;;;;8.97;63.11;100148.19;1632814;87;22075;-71
2022/02/15 15:24:39;;;;;;;296.02;156.32;;;;;;;8.96;63.15;100151.03;1632781;87;21134;-71
2022/02/15 15:27:06;;;;;;;323.52;160.30;;;;;;;8.93;63.21;100151.37;1661070;84;20991;-71
2022/02/15 15:29:32;;;;;;;259.48;112.42;;;;;;;8.92;63.27;100156.34;1673092;85;21081;-71
2022/02/15 15:31:58;;;;;;;111.28;41.13;;;;;;;8.90;63.32;100159.16;1673245;84;21507;-71
2022/02/15 15:34:24;;;;;;;118.40;55.23;;;;;;;8.89;63.34;100163.33;1672936;85;21959;-71
2022/02/15 15:36:50;;;;;;;125.55;50.25;;;;;;;8.85;63.41;100154.02;1672090;85;21112;-71
2022/02/15 15:39:16;;;;;;;188.40;65.90;;;;;;;8.83;63.44;100156.02;1655694;85;21004;-71
2022/02/15 15:41:42;;;;;;;129.32;46.45;;;;;;;8.81;63.50;100159.31;1660013;84;21062;-71
2022/02/15 15:44:08;;;;;;;40.65;19.23;;;;;;;8.79;63.56;100166.64;1662107;85;21013;-71
2022/02/15 15:46:35;;;;;;;48.98;21.80;;;;;;;8.77;63.59;100165.95;1666903;85;21183;-71
2022/02/15 15:49:01;;;;;;;52.85;22.80;;;;;;;8.76;63.63;100162.98;1645338;85;21074;-70
2022/02/15 15:51:28;;;;;;;218.90;74.77;;;;;;;8.74;63.70;100162.30;1667267;85;21078;-70
2022/02/15 15:53:56;;;;;;;165.05;61.40;;;;;;;8.72;63.75;100168.30;1655840;85;21110;-71
2022/02/15 15:56:28;;;;;;;280.95;98.12;;;;;;;8.72;63.76;100161.64;1672360;85;21559;-71
2022/02/15 15:58:50;;;;;;;229.45;94.60;;;;;;;8.69;63.79;100162.78;1662995;84;21310;-71
2022/02/15 16:01:16;;;;;;;187.15;66.72;;;;;;;8.66;63.83;100164.94;1658020;85;21032;-71
2022/02/15 16:03:42;;;;;;;121.45;53.42;;;;;;;8.62;63.87;100160.97;1676736;84;21008;-70
2022/02/15 16:06:08;;;;;;;146.20;63.08;;;;;;;8.59;63.94;100165.25;1667447;85;21076;-71
2022/02/15 16:08:34;;;;;;;101.50;40.92;;;;;;;8.57;63.99;100163.27;1656449;85;21050;-71
2022/02/15 16:11:01;;;;;;;171.77;70.08;;;;;;;8.53;64.03;100173.39;1672201;85;21650;-71
2022/02/15 16:13:27;;;;;;;50.65;22.17;;;;;;;8.51;64.09;100173.55;1674258;84;21496;-71
2022/02/15 16:15:55;;;;;;;67.25;21.35;;;;;;;8.49;64.14;100170.72;1652438;85;21568;-71
2022/02/15 16:18:21;;;;;;;127.90;56.92;;;;;;;8.46;64.19;100172.37;1660685;85;21048;-71
2022/02/15 16:20:47;;;;;;;137.50;60.28;;;;;;;8.44;64.23;100171.20;1661820;85;21076;-71
2022/02/15 16:23:13;;;;;;;110.68;43.98;;;;;;;8.41;64.29;100170.20;1670456;85;21059;-71
2022/02/15 16:25:39;;;;;;;97.80;46.63;;;;;;;8.39;64.33;100165.55;1671606;85;22052;-71
2022/02/15 16:28:05;;;;;;;61.15;32.08;;;;;;;8.36;64.39;100169.03;1671101;85;21546;-71
2022/02/15 16:30:34;;;;;;;103.47;39.42;;;;;;;8.32;64.47;100168.52;1671759;85;21003;-71
2022/02/15 16:33:01;;;;;;;263.92;114.10;;;;;;;8.30;64.53;100175.80;1671620;85;21105;-71
2022/02/15 16:35:27;;;;;;;167.57;69.65;;;;;;;8.28;64.58;100179.13;1661677;85;22034;-71
2022/02/15 16:37:53;;;;;;;108.52;56.63;;;;;;;8.27;64.66;100174.77;1664507;84;21286;-70
2022/02/15 16:40:20;;;;;;;83.87;41.85;;;;;;;8.26;64.76;100177.11;1660427;85;21014;-71
2022/02/15 16:42:46;;;;;;;139.57;59.83;;;;;;;8.28;64.86;100175.60;1667894;85;21061;-71
2022/02/15 16:45:12;;;;;;;105.60;42.88;;;;;;;8.27;64.93;100169.45;1665601;85;21669;-71
2022/02/15 16:47:38;;;;;;;79.65;30.72;;;;;;;8.27;65.03;100176.09;1654292;85;21101;-71
2022/02/15 16:50:05;;;;;;;97.92;43.90;;;;;;;8.26;65.12;100173.13;1668779;85;20988;-71
2022/02/15 16:52:31;;;;;;;112.08;53.75;;;;;;;8.25;65.20;100175.44;1664902;85;21038;-71
2022/02/15 16:54:57;;;;;;;80.03;40.17;;;;;;;8.23;65.25;100173.45;1664758;85;21120;-71
2022/02/15 16:57:23;;;;;;;60.12;29.63;;;;;;;8.20;65.31;100177.73;1655345;85;21022;-70
2022/02/15 16:59:49;;;;;;;59.40;26.48;;;;;;;8.17;65.35;100188.67;1651883;84;21258;-70
2022/02/15 17:02:15;;;;;;;58.23;22.37;;;;;;;8.11;65.40;100181.35;1656451;85;21038;-70
2022/02/15 17:04:43;;;;;;;63.00;24.55;;;;;;;8.07;65.45;100187.97;1668679;85;21510;-70
2022/02/15 17:07:09;;;;;;;69.55;27.25;;;;;;;8.04;65.51;100188.29;1659831;85;21107;-70
2022/02/15 17:09:37;;;;;;;90.12;39.80;;;;;;;7.98;65.57;100193.75;1664127;84;21011;-70
2022/02/15 17:12:04;;;;;;;96.53;39.03;;;;;;;7.96;65.61;100201.03;1653209;85;21606;-71
2022/02/15 17:14:31;;;;;;;95.57;45.83;;;;;;;7.90;65.65;100191.54;1660448;85;21018;-70
2022/02/15 17:16:59;;;;;;;176.90;95.95;;;;;;;7.87;65.72;100192.70;1671468;85;21090;-70
2022/02/15 17:19:25;;;;;;;140.70;56.70;;;;;;;7.84;65.78;100194.34;1680953;84;21519;-70
2022/02/15 17:21:51;;;;;;;80.72;30.75;;;;;;;7.79;65.84;100194.45;1669593;83;21487;-71
2022/02/15 17:24:17;;;;;;;71.17;28.60;;;;;;;7.74;65.88;100191.45;1672261;85;21241;-71
2022/02/15 17:26:43;;;;;;;79.53;31.23;;;;;;;7.70;65.96;100194.92;1672200;85;21420;-70
2022/02/15 17:29:10;;;;;;;102.17;36.77;;;;;;;7.65;66.00;100197.69;1673050;84;21047;-70
2022/02/15 17:31:37;;;;;;;78.05;28.27;;;;;;;7.62;66.08;100201.49;1665080;85;21046;-70
2022/02/15 17:34:05;;;;;;;83.27;27.73;;;;;;;7.61;66.15;100205.61;1666778;84;21447;-70
2022/02/15 17:36:31;;;;;;;88.75;27.73;;;;;;;7.58;66.23;100205.93;1657950;85;21827;-70
2022/02/15 17:38:57;;;;;;;63.50;22.13;;;;;;;7.55;66.32;100209.73;1676037;84;21025;-70
2022/02/15 17:41:23;;;;;;;475.12;249.55;;;;;;;7.54;66.42;100206.73;1668054;85;21034;-70
2022/02/15 17:43:49;;;;;;;146.40;65.42;;;;;;;7.55;66.54;100205.75;1667095;85;21069;-71
2022/02/15 17:46:17;;;;;;;74.00;40.95;;;;;;;7.56;66.64;100209.25;1665178;83;21059;-70
2022/02/15 17:48:43;;;;;;;83.58;45.58;;;;;;;7.57;66.73;100205.58;1672034;84;21140;-70
2022/02/15 17:51:09;;;;;;;61.28;34.95;;;;;;;7.56;66.81;100201.28;1653647;84;21625;-71
2022/02/15 17:53:37;;;;;;;108.95;70.00;;;;;;;7.54;66.91;100196.95;1665083;84;21051;-71
2022/02/15 17:56:05;;;;;;;78.80;43.45;;;;;;;7.53;66.97;100194.45;1664658;85;21073;-73
2022/02/15 17:58:31;;;;;;;131.57;67.78;;;;;;;7.50;66.99;100187.64;1669232;85;21532;-71
2022/02/15 18:00:58;;;;;;;79.97;42.85;;;;;;;7.45;67.04;100181.98;1662915;85;21827;-71
2022/02/15 18:03:26;;;;;;;67.95;30.23;;;;;;;7.40;67.08;100189.56;1670313;85;21080;-71
2022/02/15 18:05:52;;;;;;;114.67;49.98;;;;;;;7.32;67.09;100202.75;1669238;85;21562;-71
2022/02/15 18:08:19;;;;;;;113.88;45.00;;;;;;;7.23;67.15;100201.03;1663647;85;21049;-71
2022/02/15 18:10:45;;;;;;;77.27;31.35;;;;;;;7.15;67.18;100202.77;1661309;84;21019;-71
2022/02/15 18:13:17;;;;;;;170.53;69.65;;;;;;;7.04;67.25;100199.38;1671721;85;21161;-71
2022/02/15 18:15:39;;;;;;;159.95;70.05;;;;;;;6.95;67.30;100204.76;1663809;85;21542;-71
2022/02/15 18:18:05;;;;;;;98.65;44.80;;;;;;;6.87;67.35;100209.48;1671962;85;21550;-71
2022/02/15 18:20:33;;;;;;;304.52;138.77;;;;;;;6.79;67.40;100202.77;1649468;85;21032;-70
2022/02/15 18:22:59;;;;;;;122.35;61.90;;;;;;;6.72;67.46;100208.33;1653881;85;21040;-71
2022/02/15 18:25:27;;;;;;;155.40;86.57;;;;;;;6.66;67.56;100206.77;1615159;87;21071;-70
2022/02/15 18:27:53;;;;;;;52.08;28.32;;;;;;;6.61;67.61;100209.05;1638626;85;21084;-70
2022/02/15 18:30:19;;;;;;;61.23;35.20;;;;;;;6.57;67.67;100212.98;1653373;84;21014;-70
2022/02/15 18:32:47;;;;;;;80.55;37.42;;;;;;;6.49;67.74;100213.23;1643731;85;21055;-70
2022/02/15 18:35:13;;;;;;;53.63;28.23;;;;;;;6.46;67.86;100214.86;1675422;84;21570;-70
2022/02/15 18:37:39;;;;;;;124.33;66.85;;;;;;;6.44;67.96;100212.83;1655378;84;21579;-70
2022/02/15 18:40:06;;;;;;;40.45;22.52;;;;;;;6.39;68.04;100213.78;1620529;87;21096;-71
2022/02/15 18:42:33;;;;;;;45.25;22.58;;;;;;;6.35;68.18;100212.89;1649514;85;21066;-70
2022/02/15 18:44:59;;;;;;;44.83;22.58;;;;;;;6.31;68.27;100211.52;1662150;84;21537;-70
2022/02/15 18:47:27;;;;;;;48.87;24.43;;;;;;;6.28;68.35;100214.45;1652321;84;21111;-70
2022/02/15 18:49:53;;;;;;;43.33;23.38;;;;;;;6.22;68.43;100222.52;1650678;86;21080;-71
2022/02/15 18:52:19;;;;;;;42.85;21.82;;;;;;;6.15;68.53;100214.81;1650752;86;21072;-71
2022/02/15 18:54:47;;;;;;;33.28;18.77;;;;;;;6.11;68.62;100222.70;1651377;85;21557;-71
2022/02/15 18:57:14;;;;;;;35.40;18.10;;;;;;;6.07;68.67;100219.98;1650404;85;21142;-71
2022/02/15 18:59:41;;;;;;;37.67;19.02;;;;;;;5.99;68.73;100218.55;1661563;85;21106;-71
2022/02/15 19:02:07;;;;;;;35.00;18.85;;;;;;;5.94;68.82;100212.88;1670791;85;21818;-71
2022/02/15 19:04:33;;;;;;;35.45;18.80;;;;;;;5.89;68.88;100220.40;1669436;84;21050;-71
2022/02/15 19:06:59;;;;;;;36.25;20.70;;;;;;;5.83;68.94;100216.50;1671472;85;21034;-73
2022/02/15 19:09:25;;;;;;;60.65;30.97;;;;;;;5.79;69.00;100211.62;1663466;85;21028;-70
2022/02/15 19:11:52;;;;;;;66.35;34.25;;;;;;;5.75;69.07;100213.73;1654502;85;21042;-70
2022/02/15 19:14:20;;;;;;;78.67;42.45;;;;;;;5.74;69.18;100208.56;1637502;86;21471;-70
2022/02/15 19:16:47;;;;;;;68.50;37.83;;;;;;;5.72;69.25;100206.08;1657316;85;21642;-69
2022/02/15 19:19:19;;;;;;;61.60;33.18;;;;;;;5.70;69.34;100204.05;1677213;84;21072;-70
2022/02/15 19:21:48;;;;;;;44.80;22.50;;;;;;;5.71;69.43;100202.24;1688373;84;21091;-70
2022/02/15 19:24:14;;;;;;;46.77;19.98;;;;;;;5.73;69.50;100202.47;1667115;85;21021;-70
2022/02/15 19:26:41;;;;;;;35.48;19.90;;;;;;;5.77;69.62;100213.59;1630462;86;21502;-70
2022/02/15 19:29:07;;;;;;;48.95;25.70;;;;;;;5.76;69.69;100217.21;1664238;84;21050;-70
2022/02/15 19:31:33;;;;;;;60.88;31.40;;;;;;;5.78;69.73;100220.53;1670365;85;21632;-70
2022/02/15 19:33:59;;;;;;;58.35;30.97;;;;;;;5.76;69.79;100220.70;1668534;85;21049;-70
2022/02/15 19:36:27;;;;;;;49.25;22.77;;;;;;;5.74;69.84;100212.05;1665039;86;21547;-70
2022/02/15 19:38:53;;;;;;;42.73;20.97;;;;;;;5.74;69.93;100213.86;1666306;85;21862;-70
2022/02/15 19:41:22;;;;;;;35.60;19.35;;;;;;;5.75;69.94;100215.53;1665825;85;21050;-70
2022/02/15 19:43:47;;;;;;;31.93;16.77;;;;;;;5.76;69.99;100211.92;1654745;84;21099;-70
2022/02/15 19:46:14;;;;;;;31.37;17.40;;;;;;;5.78;70.04;100213.92;1640006;85;21080;-71
2022/02/15 19:48:40;;;;;;;42.10;19.77;;;;;;;5.82;70.05;100219.27;1618048;87;21047;-70
2022/02/15 19:51:06;;;;;;;36.90;18.60;;;;;;;5.85;70.05;100217.66;1644162;84;21526;-71
2022/02/15 19:53:32;;;;;;;51.20;21.93;;;;;;;5.90;70.11;100211.01;1619536;87;21508;-70
2022/02/15 19:55:58;;;;;;;41.20;18.50;;;;;;;5.97;70.13;100216.55;1620652;87;21055;-70
2022/02/15 19:58:25;;;;;;;38.70;18.67;;;;;;;6.01;70.17;100208.19;1663302;86;21019;-70
2022/02/15 20:00:51;;;;;;;35.75;19.20;;;;;;;6.10;70.21;100217.05;1649660;86;21111;-71